sensor_id;sensor_type;location;lat;lon;timestamp;pressure;altitude;pressure_sealevel;temperature;humidity
49583;BME280;36329;48.816;44.624;2023-04-08T00:01:04;101365;;;7.9;69.8
49583;BME280;36329;48.816;44.624;2023-04-08T00:04:06;101372;;;7.9;70.6
49583;BME280;36329;48.816;44.624;2023-04-08T00:07:09;101380;;;7.9;71
49583;BME280;36329;48.816;44.624;2023-04-08T00:10:11;101372;;;8.1;70
49583;BME280;36329;48.816;44.624;2023-04-08T00:13:15;101362;;;8.2;69.5
49583;BME280;36329;48.816;44.624;2023-04-08T00:16:17;101366;;;8.1;70.7
49583;BME280;36329;48.816;44.624;2023-04-08T00:19:19;101382;;;8.1;70.8
49583;BME280;36329;48.816;44.624;2023-04-08T00:22:21;101371;;;8;71
49583;BME280;36329;48.816;44.624;2023-04-08T00:25:23;101378;;;8;71.3
49583;BME280;36329;48.816;44.624;2023-04-08T00:28:25;101369;;;8;71.9
49583;BME280;36329;48.816;44.624;2023-04-08T00:31:27;101381;;;7.9;72.3
49583;BME280;36329;48.816;44.624;2023-04-08T00:34:29;101373;;;8.1;72.1
49583;BME280;36329;48.816;44.624;2023-04-08T00:37:31;101382;;;7.9;73.1
49583;BME280;36329;48.816;44.624;2023-04-08T00:40:34;101381;;;7.8;73.7
49583;BME280;36329;48.816;44.624;2023-04-08T00:43:36;101380;;;7.9;73.6
49583;BME280;36329;48.816;44.624;2023-04-08T00:46:39;101379;;;7.6;74.7
49583;BME280;36329;48.816;44.624;2023-04-08T00:49:41;101383;;;7.4;76.9
49583;BME280;36329;48.816;44.624;2023-04-08T00:52:43;101394;;;7.7;76.2
49583;BME280;36329;48.816;44.624;2023-04-08T00:55:46;101396;;;7.5;76
49583;BME280;36329;48.816;44.624;2023-04-08T00:58:48;101391;;;7.5;77.3
49583;BME280;36329;48.816;44.624;2023-04-08T01:01:56;101387;;;7.4;77.7
49583;BME280;36329;48.816;44.624;2023-04-08T01:05:03;101397;;;7.6;77
49583;BME280;36329;48.816;44.624;2023-04-08T01:08:07;101387;;;7.6;77
49583;BME280;36329;48.816;44.624;2023-04-08T01:11:12;101400;;;7.3;79.2
49583;BME280;36329;48.816;44.624;2023-04-08T01:14:19;101403;;;7.5;78.5
49583;BME280;36329;48.816;44.624;2023-04-08T01:17:22;101409;;;7.5;78.6
49583;BME280;36329;48.816;44.624;2023-04-08T01:20:25;101409;;;7.4;79.6
49583;BME280;36329;48.816;44.624;2023-04-08T01:23:35;101401;;;7.3;79.5
49583;BME280;36329;48.816;44.624;2023-04-08T01:26:40;101405;;;7.5;79.8
49583;BME280;36329;48.816;44.624;2023-04-08T01:29:44;101408;;;7.4;79.4
49583;BME280;36329;48.816;44.624;2023-04-08T01:32:48;101408;;;7.3;80.6
49583;BME280;36329;48.816;44.624;2023-04-08T01:35:53;101403;;;7.4;80.4
49583;BME280;36329;48.816;44.624;2023-04-08T01:38:56;101408;;;7.3;80.9
49583;BME280;36329;48.816;44.624;2023-04-08T01:41:59;101406;;;7.3;81
49583;BME280;36329;48.816;44.624;2023-04-08T01:45:03;101416;;;7.2;81.5
49583;BME280;36329;48.816;44.624;2023-04-08T01:48:06;101412;;;6.9;83.5
49583;BME280;36329;48.816;44.624;2023-04-08T01:51:10;101422;;;7.1;83.3
49583;BME280;36329;48.816;44.624;2023-04-08T01:54:12;101425;;;7;83.1
49583;BME280;36329;48.816;44.624;2023-04-08T01:57:18;101430;;;6.9;84.3
49583;BME280;36329;48.816;44.624;2023-04-08T02:00:25;101422;;;7.1;83.8
49583;BME280;36329;48.816;44.624;2023-04-08T02:03:29;101417;;;6.8;84.2
49583;BME280;36329;48.816;44.624;2023-04-08T02:06:32;101430;;;7;84.6
49583;BME280;36329;48.816;44.624;2023-04-08T02:09:34;101426;;;6.8;85.1
49583;BME280;36329;48.816;44.624;2023-04-08T02:12:36;101439;;;6.7;86.7
49583;BME280;36329;48.816;44.624;2023-04-08T02:15:43;101445;;;6.5;87.9
49583;BME280;36329;48.816;44.624;2023-04-08T02:18:54;101446;;;6.5;88.2
49583;BME280;36329;48.816;44.624;2023-04-08T02:22:01;101449;;;6.6;87.4
49583;BME280;36329;48.816;44.624;2023-04-08T02:25:10;101453;;;6.7;88
49583;BME280;36329;48.816;44.624;2023-04-08T02:28:17;101460;;;6.6;88
49583;BME280;36329;48.816;44.624;2023-04-08T02:31:19;101461;;;6.5;89.1
49583;BME280;36329;48.816;44.624;2023-04-08T02:34:22;101471;;;6.5;88.7
49583;BME280;36329;48.816;44.624;2023-04-08T02:37:26;101474;;;6.4;89.5
49583;BME280;36329;48.816;44.624;2023-04-08T02:40:30;101477;;;6.4;90.9
49583;BME280;36329;48.816;44.624;2023-04-08T02:43:32;101479;;;6.4;90.2
49583;BME280;36329;48.816;44.624;2023-04-08T02:46:34;101472;;;6.4;90.3
49583;BME280;36329;48.816;44.624;2023-04-08T02:49:36;101481;;;6.4;90.7
49583;BME280;36329;48.816;44.624;2023-04-08T02:52:38;101478;;;6.3;91
49583;BME280;36329;48.816;44.624;2023-04-08T02:55:40;101473;;;6.2;92
49583;BME280;36329;48.816;44.624;2023-04-08T02:58:42;101474;;;6.3;91.8
49583;BME280;36329;48.816;44.624;2023-04-08T03:01:44;101479;;;6.4;91.4
49583;BME280;36329;48.816;44.624;2023-04-08T03:04:46;101477;;;6.1;92
49583;BME280;36329;48.816;44.624;2023-04-08T03:07:48;101482;;;6.3;92.4
49583;BME280;36329;48.816;44.624;2023-04-08T03:10:50;101491;;;6.3;91.8
49583;BME280;36329;48.816;44.624;2023-04-08T03:13:52;101489;;;6.3;92
49583;BME280;36329;48.816;44.624;2023-04-08T03:16:54;101496;;;6.3;91.4
49583;BME280;36329;48.816;44.624;2023-04-08T03:19:56;101495;;;6.2;91.8
49583;BME280;36329;48.816;44.624;2023-04-08T03:22:58;101487;;;6.1;91.9
49583;BME280;36329;48.816;44.624;2023-04-08T03:26:00;101497;;;6.3;91.4
49583;BME280;36329;48.816;44.624;2023-04-08T03:29:02;101497;;;6.4;90
49583;BME280;36329;48.816;44.624;2023-04-08T03:32:04;101495;;;6.3;90.1
49583;BME280;36329;48.816;44.624;2023-04-08T03:35:07;101499;;;6.4;88.8
49583;BME280;36329;48.816;44.624;2023-04-08T03:38:09;101495;;;6.4;88.9
49583;BME280;36329;48.816;44.624;2023-04-08T03:41:11;101502;;;6.5;88.4
49583;BME280;36329;48.816;44.624;2023-04-08T03:44:13;101510;;;6.5;87.5
49583;BME280;36329;48.816;44.624;2023-04-08T03:47:15;101513;;;6.9;85
49583;BME280;36329;48.816;44.624;2023-04-08T03:50:17;101517;;;7.2;83.2
49583;BME280;36329;48.816;44.624;2023-04-08T03:53:19;101522;;;7.1;82.5
49583;BME280;36329;48.816;44.624;2023-04-08T03:56:21;101521;;;7;82.5
49583;BME280;36329;48.816;44.624;2023-04-08T03:59:23;101527;;;7.1;81.9
49583;BME280;36329;48.816;44.624;2023-04-08T04:02:25;101523;;;7.2;81
49583;BME280;36329;48.816;44.624;2023-04-08T04:05:27;101535;;;7.2;80.7
49583;BME280;36329;48.816;44.624;2023-04-08T04:08:29;101545;;;7.2;79.7
49583;BME280;36329;48.816;44.624;2023-04-08T04:11:33;101535;;;7;80.7
49583;BME280;36329;48.816;44.624;2023-04-08T04:14:35;101528;;;6.9;81.3
49583;BME280;36329;48.816;44.624;2023-04-08T04:17:37;101536;;;7.2;80
49583;BME280;36329;48.816;44.624;2023-04-08T04:20:40;101541;;;7;80.6
49583;BME280;36329;48.816;44.624;2023-04-08T04:23:42;101533;;;7.2;80.3
49583;BME280;36329;48.816;44.624;2023-04-08T04:26:44;101541;;;7.2;80.4
49583;BME280;36329;48.816;44.624;2023-04-08T04:29:46;101544;;;7.1;80.5
49583;BME280;36329;48.816;44.624;2023-04-08T04:32:48;101540;;;7.4;79.3
49583;BME280;36329;48.816;44.624;2023-04-08T04:35:50;101546;;;7.5;77.9
49583;BME280;36329;48.816;44.624;2023-04-08T04:38:53;101555;;;7.4;76.9
49583;BME280;36329;48.816;44.624;2023-04-08T04:41:55;101567;;;7.4;76.6
49583;BME280;36329;48.816;44.624;2023-04-08T04:44:57;101570;;;7.6;75.5
49583;BME280;36329;48.816;44.624;2023-04-08T04:47:59;101583;;;7.6;75
49583;BME280;36329;48.816;44.624;2023-04-08T04:51:01;101580;;;7.8;74
49583;BME280;36329;48.816;44.624;2023-04-08T04:54:04;101590;;;7.8;73.5
49583;BME280;36329;48.816;44.624;2023-04-08T04:57:06;101591;;;7.9;72.7
49583;BME280;36329;48.816;44.624;2023-04-08T05:00:09;101598;;;7.9;72.5
49583;BME280;36329;48.816;44.624;2023-04-08T05:03:11;101606;;;7.9;72.7
49583;BME280;36329;48.816;44.624;2023-04-08T05:06:13;101604;;;8;72
49583;BME280;36329;48.816;44.624;2023-04-08T05:09:15;101597;;;8;71.1
49583;BME280;36329;48.816;44.624;2023-04-08T05:12:17;101595;;;8.3;70.9
49583;BME280;36329;48.816;44.624;2023-04-08T05:15:20;101596;;;8.5;69.5
49583;BME280;36329;48.816;44.624;2023-04-08T05:18:22;101603;;;8.5;69.8
49583;BME280;36329;48.816;44.624;2023-04-08T05:21:24;101604;;;8.6;68.8
49583;BME280;36329;48.816;44.624;2023-04-08T05:24:26;101602;;;8.8;67.8
49583;BME280;36329;48.816;44.624;2023-04-08T05:27:28;101611;;;8.9;67.3
49583;BME280;36329;48.816;44.624;2023-04-08T05:30:30;101619;;;9.1;66.1
49583;BME280;36329;48.816;44.624;2023-04-08T05:33:33;101610;;;9;66.6
49583;BME280;36329;48.816;44.624;2023-04-08T05:36:35;101612;;;9.3;65.7
49583;BME280;36329;48.816;44.624;2023-04-08T05:39:36;101617;;;9.6;64.3
49583;BME280;36329;48.816;44.624;2023-04-08T05:42:39;101612;;;9.5;64.9
49583;BME280;36329;48.816;44.624;2023-04-08T05:45:41;101614;;;9.8;63
49583;BME280;36329;48.816;44.624;2023-04-08T05:48:42;101622;;;10;63
49583;BME280;36329;48.816;44.624;2023-04-08T05:51:44;101631;;;9.7;63.4
49583;BME280;36329;48.816;44.624;2023-04-08T05:54:46;101633;;;9.7;63.4
49583;BME280;36329;48.816;44.624;2023-04-08T05:57:48;101634;;;9.7;63.3
49583;BME280;36329;48.816;44.624;2023-04-08T06:00:50;101639;;;10;61.6
49583;BME280;36329;48.816;44.624;2023-04-08T06:03:52;101648;;;10.5;61
49583;BME280;36329;48.816;44.624;2023-04-08T06:06:54;101648;;;10.7;59.3
49583;BME280;36329;48.816;44.624;2023-04-08T06:09:56;101657;;;10.7;59.8
49583;BME280;36329;48.816;44.624;2023-04-08T06:12:58;101664;;;10.3;61.8
49583;BME280;36329;48.816;44.624;2023-04-08T06:16:09;101659;;;10.1;62.7
49583;BME280;36329;48.816;44.624;2023-04-08T06:19:11;101658;;;10.1;63.2
49583;BME280;36329;48.816;44.624;2023-04-08T06:22:13;101657;;;10.1;63.1
49583;BME280;36329;48.816;44.624;2023-04-08T06:25:16;101661;;;10.5;62.4
49583;BME280;36329;48.816;44.624;2023-04-08T06:28:18;101662;;;10.6;61.8
49583;BME280;36329;48.816;44.624;2023-04-08T06:31:20;101661;;;10.7;61.1
49583;BME280;36329;48.816;44.624;2023-04-08T06:34:21;101661;;;11;60.5
49583;BME280;36329;48.816;44.624;2023-04-08T06:37:24;101662;;;11;60.3
49583;BME280;36329;48.816;44.624;2023-04-08T06:40:27;101662;;;11.6;59.2
49583;BME280;36329;48.816;44.624;2023-04-08T06:43:30;101659;;;11.3;58.6
49583;BME280;36329;48.816;44.624;2023-04-08T06:46:32;101652;;;11.8;58.1
49583;BME280;36329;48.816;44.624;2023-04-08T06:49:34;101656;;;12.7;54.8
49583;BME280;36329;48.816;44.624;2023-04-08T06:52:37;101659;;;13.3;53.2
49583;BME280;36329;48.816;44.624;2023-04-08T06:55:39;101649;;;13.5;52.1
49583;BME280;36329;48.816;44.624;2023-04-08T06:58:41;101660;;;13.8;51.7
49583;BME280;36329;48.816;44.624;2023-04-08T07:01:43;101664;;;14.2;49.9
49583;BME280;36329;48.816;44.624;2023-04-08T07:04:45;101665;;;13.9;50.6
49583;BME280;36329;48.816;44.624;2023-04-08T07:07:46;101676;;;14.1;49.5
49583;BME280;36329;48.816;44.624;2023-04-08T07:10:50;101671;;;14.1;49.3
49583;BME280;36329;48.816;44.624;2023-04-08T07:13:52;101666;;;14.3;49
49583;BME280;36329;48.816;44.624;2023-04-08T07:16:54;101667;;;14.6;48.2
49583;BME280;36329;48.816;44.624;2023-04-08T07:19:57;101669;;;14.6;48.9
49583;BME280;36329;48.816;44.624;2023-04-08T07:22:59;101669;;;14.7;47.6
49583;BME280;36329;48.816;44.624;2023-04-08T07:26:02;101663;;;14.5;48.5
49583;BME280;36329;48.816;44.624;2023-04-08T07:29:04;101659;;;15;46.1
49583;BME280;36329;48.816;44.624;2023-04-08T07:32:06;101663;;;14.7;46.7
49583;BME280;36329;48.816;44.624;2023-04-08T07:35:08;101660;;;15.1;46.5
49583;BME280;36329;48.816;44.624;2023-04-08T07:38:10;101665;;;14.9;46
49583;BME280;36329;48.816;44.624;2023-04-08T07:41:12;101666;;;14.6;46.8
49583;BME280;36329;48.816;44.624;2023-04-08T07:44:14;101677;;;14.8;46.9
49583;BME280;36329;48.816;44.624;2023-04-08T07:47:16;101666;;;14.7;46.8
49583;BME280;36329;48.816;44.624;2023-04-08T07:50:18;101675;;;15.1;46.6
49583;BME280;36329;48.816;44.624;2023-04-08T07:53:20;101675;;;15.5;44.9
49583;BME280;36329;48.816;44.624;2023-04-08T07:56:22;101672;;;15.5;44.8
49583;BME280;36329;48.816;44.624;2023-04-08T07:59:24;101673;;;15.6;44.7
49583;BME280;36329;48.816;44.624;2023-04-08T08:02:26;101673;;;15.7;44.7
49583;BME280;36329;48.816;44.624;2023-04-08T08:05:28;101676;;;15.6;44.7
49583;BME280;36329;48.816;44.624;2023-04-08T08:08:30;101682;;;15.8;43.4
49583;BME280;36329;48.816;44.624;2023-04-08T08:11:32;101685;;;15.5;44
49583;BME280;36329;48.816;44.624;2023-04-08T08:14:34;101672;;;15.8;43.8
49583;BME280;36329;48.816;44.624;2023-04-08T08:17:36;101678;;;15.7;44
49583;BME280;36329;48.816;44.624;2023-04-08T08:20:39;101682;;;15.8;43.3
49583;BME280;36329;48.816;44.624;2023-04-08T08:23:41;101677;;;15.9;43.3
49583;BME280;36329;48.816;44.624;2023-04-08T08:26:43;101680;;;15.3;44.4
49583;BME280;36329;48.816;44.624;2023-04-08T08:29:45;101673;;;15.6;44.2
49583;BME280;36329;48.816;44.624;2023-04-08T08:32:47;101678;;;15.4;45.1
49583;BME280;36329;48.816;44.624;2023-04-08T08:35:49;101678;;;16;44.4
49583;BME280;36329;48.816;44.624;2023-04-08T08:38:51;101674;;;15.9;43.4
49583;BME280;36329;48.816;44.624;2023-04-08T08:41:53;101679;;;16.2;43.3
49583;BME280;36329;48.816;44.624;2023-04-08T08:44:55;101680;;;16.3;42.5
49583;BME280;36329;48.816;44.624;2023-04-08T08:47:57;101676;;;16.7;41.5
49583;BME280;36329;48.816;44.624;2023-04-08T08:51:00;101678;;;16.6;41.9
49583;BME280;36329;48.816;44.624;2023-04-08T08:54:02;101674;;;16.8;40.8
49583;BME280;36329;48.816;44.624;2023-04-08T08:57:04;101688;;;16.1;41.9
49583;BME280;36329;48.816;44.624;2023-04-08T09:00:07;101690;;;16.2;42.3
49583;BME280;36329;48.816;44.624;2023-04-08T09:03:18;101687;;;16.1;42.4
49583;BME280;36329;48.816;44.624;2023-04-08T09:06:24;101698;;;16.3;42.3
49583;BME280;36329;48.816;44.624;2023-04-08T09:09:28;101697;;;16.9;41.5
49583;BME280;36329;48.816;44.624;2023-04-08T09:12:53;101686;;;17;41
49583;BME280;36329;48.816;44.624;2023-04-08T09:16:05;101687;;;16.9;41.1
49583;BME280;36329;48.816;44.624;2023-04-08T09:19:09;101689;;;17;40.4
49583;BME280;36329;48.816;44.624;2023-04-08T09:22:11;101690;;;16.7;41.1
49583;BME280;36329;48.816;44.624;2023-04-08T09:25:22;101685;;;16.9;41.5
49583;BME280;36329;48.816;44.624;2023-04-08T09:28:24;101686;;;17.3;40.2
49583;BME280;36329;48.816;44.624;2023-04-08T09:31:28;101691;;;17;40.3
49583;BME280;36329;48.816;44.624;2023-04-08T09:34:30;101679;;;16.7;41.1
49583;BME280;36329;48.816;44.624;2023-04-08T09:37:32;101686;;;16.8;40.6
49583;BME280;36329;48.816;44.624;2023-04-08T09:40:35;101681;;;15.7;43.1
49583;BME280;36329;48.816;44.624;2023-04-08T09:43:41;101690;;;16.3;42.7
49583;BME280;36329;48.816;44.624;2023-04-08T09:46:52;101681;;;16;42.6
49583;BME280;36329;48.816;44.624;2023-04-08T09:50:01;101691;;;16.2;42.5
49583;BME280;36329;48.816;44.624;2023-04-08T09:53:09;101690;;;16.2;42.2
49583;BME280;36329;48.816;44.624;2023-04-08T09:56:16;101694;;;16.3;42.1
49583;BME280;36329;48.816;44.624;2023-04-08T09:59:21;101693;;;16.2;42.2
49583;BME280;36329;48.816;44.624;2023-04-08T10:02:29;101705;;;16;42.7
49583;BME280;36329;48.816;44.624;2023-04-08T10:05:32;101703;;;15.7;42.6
49583;BME280;36329;48.816;44.624;2023-04-08T10:08:38;101706;;;15.7;42.9
49583;BME280;36329;48.816;44.624;2023-04-08T10:11:40;101706;;;15.6;44
49583;BME280;36329;48.816;44.624;2023-04-08T10:18:31;101701;;;15.8;43
49583;BME280;36329;48.816;44.624;2023-04-08T10:21:35;101707;;;16;43.2
49583;BME280;36329;48.816;44.624;2023-04-08T10:24:37;101702;;;16.4;42.3
49583;BME280;36329;48.816;44.624;2023-04-08T10:27:40;101706;;;15.6;43
49583;BME280;36329;48.816;44.624;2023-04-08T10:30:42;101711;;;15.6;43.3
49583;BME280;36329;48.816;44.624;2023-04-08T10:33:45;101714;;;15.8;43.1
49583;BME280;36329;48.816;44.624;2023-04-08T10:36:47;101712;;;16.3;42.1
49583;BME280;36329;48.816;44.624;2023-04-08T10:39:49;101712;;;16.6;40.9
49583;BME280;36329;48.816;44.624;2023-04-08T10:42:53;101712;;;16.4;41.6
49583;BME280;36329;48.816;44.624;2023-04-08T10:45:55;101720;;;16.1;41.8
49583;BME280;36329;48.816;44.624;2023-04-08T10:48:59;101722;;;15.6;42.4
49583;BME280;36329;48.816;44.624;2023-04-08T10:52:06;101715;;;15.9;42.4
49583;BME280;36329;48.816;44.624;2023-04-08T10:55:09;101713;;;16.2;41.5
49583;BME280;36329;48.816;44.624;2023-04-08T10:58:11;101716;;;16;42.3
49583;BME280;36329;48.816;44.624;2023-04-08T11:01:13;101708;;;16;42.3
49583;BME280;36329;48.816;44.624;2023-04-08T11:04:16;101717;;;15.8;42.6
49583;BME280;36329;48.816;44.624;2023-04-08T11:07:19;101725;;;15.7;43
49583;BME280;36329;48.816;44.624;2023-04-08T11:10:21;101723;;;15.1;43.5
49583;BME280;36329;48.816;44.624;2023-04-08T11:13:23;101716;;;15.5;43.3
49583;BME280;36329;48.816;44.624;2023-04-08T11:16:26;101726;;;15.3;43.8
49583;BME280;36329;48.816;44.624;2023-04-08T11:19:29;101724;;;15.4;43.4
49583;BME280;36329;48.816;44.624;2023-04-08T11:22:31;101720;;;15.5;42.9
49583;BME280;36329;48.816;44.624;2023-04-08T11:25:33;101721;;;15.3;43
49583;BME280;36329;48.816;44.624;2023-04-08T11:28:35;101724;;;15.3;43
49583;BME280;36329;48.816;44.624;2023-04-08T11:31:38;101730;;;15.2;43.6
49583;BME280;36329;48.816;44.624;2023-04-08T11:34:40;101730;;;15.1;43.8
49583;BME280;36329;48.816;44.624;2023-04-08T11:37:42;101736;;;14.9;43.4
49583;BME280;36329;48.816;44.624;2023-04-08T11:40:51;101739;;;14.9;44.5
49583;BME280;36329;48.816;44.624;2023-04-08T11:43:55;101751;;;14.5;44.9
49583;BME280;36329;48.816;44.624;2023-04-08T11:46:57;101752;;;14.2;46
49583;BME280;36329;48.816;44.624;2023-04-08T11:49:59;101744;;;14.3;46.4
49583;BME280;36329;48.816;44.624;2023-04-08T11:53:01;101747;;;14.2;45.8
49583;BME280;36329;48.816;44.624;2023-04-08T11:56:19;101748;;;14.4;45.5
49583;BME280;36329;48.816;44.624;2023-04-08T11:59:22;101757;;;13.9;46.4
49583;BME280;36329;48.816;44.624;2023-04-08T12:02:25;101754;;;14.1;46.5
49583;BME280;36329;48.816;44.624;2023-04-08T12:05:27;101758;;;14;46.5
49583;BME280;36329;48.816;44.624;2023-04-08T12:08:29;101761;;;14;46.9
49583;BME280;36329;48.816;44.624;2023-04-08T12:11:32;101753;;;14;46.6
49583;BME280;36329;48.816;44.624;2023-04-08T12:14:34;101765;;;13.9;46.6
49583;BME280;36329;48.816;44.624;2023-04-08T12:17:36;101774;;;13.7;46.5
49583;BME280;36329;48.816;44.624;2023-04-08T12:20:38;101765;;;13.5;46.5
49583;BME280;36329;48.816;44.624;2023-04-08T12:23:40;101767;;;13.4;46.6
49583;BME280;36329;48.816;44.624;2023-04-08T12:26:42;101774;;;13.4;46.5
49583;BME280;36329;48.816;44.624;2023-04-08T12:29:44;101772;;;13.2;46.9
49583;BME280;36329;48.816;44.624;2023-04-08T12:32:46;101767;;;12.9;47.5
49583;BME280;36329;48.816;44.624;2023-04-08T12:35:48;101777;;;12.9;47.6
49583;BME280;36329;48.816;44.624;2023-04-08T12:38:50;101774;;;12.5;48.2
49583;BME280;36329;48.816;44.624;2023-04-08T12:41:52;101770;;;12.7;48.7
49583;BME280;36329;48.816;44.624;2023-04-08T12:44:54;101778;;;12.4;49.1
49583;BME280;36329;48.816;44.624;2023-04-08T12:47:56;101777;;;12.2;49.5
49583;BME280;36329;48.816;44.624;2023-04-08T12:50:58;101780;;;12.2;49.5
49583;BME280;36329;48.816;44.624;2023-04-08T12:54:00;101781;;;12.4;49
49583;BME280;36329;48.816;44.624;2023-04-08T12:57:02;101782;;;11.9;49.6
49583;BME280;36329;48.816;44.624;2023-04-08T13:00:06;101785;;;11.8;50.7
49583;BME280;36329;48.816;44.624;2023-04-08T13:03:08;101781;;;11.4;51.4
49583;BME280;36329;48.816;44.624;2023-04-08T13:06:10;101784;;;11.8;50.9
49583;BME280;36329;48.816;44.624;2023-04-08T13:09:12;101792;;;12.2;50.4
49583;BME280;36329;48.816;44.624;2023-04-08T13:12:14;101789;;;11.9;51.2
49583;BME280;36329;48.816;44.624;2023-04-08T13:15:16;101791;;;11.4;52.9
49583;BME280;36329;48.816;44.624;2023-04-08T13:18:18;101797;;;11.2;53.3
49583;BME280;36329;48.816;44.624;2023-04-08T13:21:20;101802;;;11;54.2
49583;BME280;36329;48.816;44.624;2023-04-08T13:24:22;101800;;;11.1;54.8
49583;BME280;36329;48.816;44.624;2023-04-08T13:27:24;101799;;;10.9;54.7
49583;BME280;36329;48.816;44.624;2023-04-08T13:30:26;101799;;;10.9;54.4
49583;BME280;36329;48.816;44.624;2023-04-08T13:33:28;101803;;;10.4;54.8
49583;BME280;36329;48.816;44.624;2023-04-08T13:36:30;101800;;;10.3;55.6
49583;BME280;36329;48.816;44.624;2023-04-08T13:39:32;101808;;;10.2;56.1
49583;BME280;36329;48.816;44.624;2023-04-08T13:42:34;101809;;;10;57.2
49583;BME280;36329;48.816;44.624;2023-04-08T13:45:36;101804;;;9.7;58.6
49583;BME280;36329;48.816;44.624;2023-04-08T13:48:38;101816;;;9.6;59.2
49583;BME280;36329;48.816;44.624;2023-04-08T13:51:40;101811;;;9.8;58.8
49583;BME280;36329;48.816;44.624;2023-04-08T13:54:42;101823;;;9.9;58.1
49583;BME280;36329;48.816;44.624;2023-04-08T13:57:44;101813;;;9.7;58.7
49583;BME280;36329;48.816;44.624;2023-04-08T14:00:46;101814;;;9.7;58.8
49583;BME280;36329;48.816;44.624;2023-04-08T14:03:48;101809;;;9.4;59.4
49583;BME280;36329;48.816;44.624;2023-04-08T14:06:50;101792;;;9.2;60.6
49583;BME280;36329;48.816;44.624;2023-04-08T14:09:52;101796;;;9.2;62.3
49583;BME280;36329;48.816;44.624;2023-04-08T14:12:54;101797;;;9.5;61.7
49583;BME280;36329;48.816;44.624;2023-04-08T14:15:56;101801;;;9.2;61.3
49583;BME280;36329;48.816;44.624;2023-04-08T14:18:59;101800;;;9.1;62
49583;BME280;36329;48.816;44.624;2023-04-08T14:22:01;101811;;;9.1;61.4
49583;BME280;36329;48.816;44.624;2023-04-08T14:25:03;101809;;;9.3;61.1
49583;BME280;36329;48.816;44.624;2023-04-08T14:28:05;101816;;;9.3;59.9
49583;BME280;36329;48.816;44.624;2023-04-08T14:31:07;101828;;;9.2;59.7
49583;BME280;36329;48.816;44.624;2023-04-08T14:34:09;101814;;;9.2;60.9
49583;BME280;36329;48.816;44.624;2023-04-08T14:37:11;101812;;;9;61.2
49583;BME280;36329;48.816;44.624;2023-04-08T14:40:13;101808;;;9;61.3
49583;BME280;36329;48.816;44.624;2023-04-08T14:43:15;101814;;;9.2;62.1
49583;BME280;36329;48.816;44.624;2023-04-08T14:46:17;101806;;;8.9;60.9
49583;BME280;36329;48.816;44.624;2023-04-08T14:49:19;101804;;;9.1;60.4
49583;BME280;36329;48.816;44.624;2023-04-08T14:52:21;101798;;;9;61.1
49583;BME280;36329;48.816;44.624;2023-04-08T14:55:23;101795;;;8.9;62.9
49583;BME280;36329;48.816;44.624;2023-04-08T14:58:25;101789;;;8.8;62.9
49583;BME280;36329;48.816;44.624;2023-04-08T15:01:27;101797;;;8.8;61.7
49583;BME280;36329;48.816;44.624;2023-04-08T15:04:30;101802;;;8.6;61.6
49583;BME280;36329;48.816;44.624;2023-04-08T15:07:32;101805;;;8.6;63.4
49583;BME280;36329;48.816;44.624;2023-04-08T15:10:34;101817;;;8.6;62.3
49583;BME280;36329;48.816;44.624;2023-04-08T15:13:36;101822;;;8.7;62.2
49583;BME280;36329;48.816;44.624;2023-04-08T15:16:38;101824;;;8.7;62
49583;BME280;36329;48.816;44.624;2023-04-08T15:19:40;101827;;;8.7;61.9
49583;BME280;36329;48.816;44.624;2023-04-08T15:22:42;101841;;;8.6;62.3
49583;BME280;36329;48.816;44.624;2023-04-08T15:25:44;101846;;;8.4;63.3
49583;BME280;36329;48.816;44.624;2023-04-08T15:28:47;101847;;;8.4;63.5
49583;BME280;36329;48.816;44.624;2023-04-08T15:31:48;101854;;;8.2;64.4
49583;BME280;36329;48.816;44.624;2023-04-08T15:34:50;101859;;;8.1;66
49583;BME280;36329;48.816;44.624;2023-04-08T15:37:53;101860;;;8.3;64.4
49583;BME280;36329;48.816;44.624;2023-04-08T15:40:55;101858;;;8;64.9
49583;BME280;36329;48.816;44.624;2023-04-08T15:43:57;101863;;;8.1;65.1
49583;BME280;36329;48.816;44.624;2023-04-08T15:46:59;101868;;;8.2;64.5
49583;BME280;36329;48.816;44.624;2023-04-08T15:50:01;101870;;;8.3;63.6
49583;BME280;36329;48.816;44.624;2023-04-08T15:53:05;101874;;;8.2;64
49583;BME280;36329;48.816;44.624;2023-04-08T15:56:11;101877;;;8.3;64.2
49583;BME280;36329;48.816;44.624;2023-04-08T15:59:14;101878;;;8.3;64.3
49583;BME280;36329;48.816;44.624;2023-04-08T16:02:16;101885;;;8.1;64.8
49583;BME280;36329;48.816;44.624;2023-04-08T16:05:17;101881;;;8.2;65.1
49583;BME280;36329;48.816;44.624;2023-04-08T16:08:19;101884;;;8.1;65.7
49583;BME280;36329;48.816;44.624;2023-04-08T16:11:21;101891;;;8;65.9
49583;BME280;36329;48.816;44.624;2023-04-08T16:14:23;101892;;;7.9;66.5
49583;BME280;36329;48.816;44.624;2023-04-08T16:17:26;101894;;;8;66.1
49583;BME280;36329;48.816;44.624;2023-04-08T16:20:28;101906;;;7.8;67.2
49583;BME280;36329;48.816;44.624;2023-04-08T16:23:30;101910;;;7.8;67.1
49583;BME280;36329;48.816;44.624;2023-04-08T16:26:32;101907;;;7.9;66.9
49583;BME280;36329;48.816;44.624;2023-04-08T16:29:34;101922;;;8.1;65.8
49583;BME280;36329;48.816;44.624;2023-04-08T16:32:36;101930;;;8;66
49583;BME280;36329;48.816;44.624;2023-04-08T16:35:38;101928;;;8.1;65.1
49583;BME280;36329;48.816;44.624;2023-04-08T16:38:40;101927;;;8;65.5
49583;BME280;36329;48.816;44.624;2023-04-08T16:41:42;101929;;;8.1;64.8
49583;BME280;36329;48.816;44.624;2023-04-08T16:44:44;101927;;;7.9;64.6
49583;BME280;36329;48.816;44.624;2023-04-08T16:47:46;101932;;;8;64.7
49583;BME280;36329;48.816;44.624;2023-04-08T16:50:48;101937;;;8;64.4
49583;BME280;36329;48.816;44.624;2023-04-08T16:53:50;101948;;;7.9;65.5
49583;BME280;36329;48.816;44.624;2023-04-08T16:56:52;101946;;;7.9;65.8
49583;BME280;36329;48.816;44.624;2023-04-08T16:59:54;101944;;;8;65.5
49583;BME280;36329;48.816;44.624;2023-04-08T17:02:56;101941;;;8;65.6
49583;BME280;36329;48.816;44.624;2023-04-08T17:06:04;101942;;;7.8;66